sensor_id;sensor_type;location;lat;lon;timestamp;pressure;altitude;pressure_sealevel;temperature;humidity
29063;BME280;71206;48.564;-123.458;2024-01-15T00:01:25;101887.07;;;1.61;44.90
29063;BME280;71206;48.564;-123.458;2024-01-15T00:03:51;101886.84;;;1.87;44.21
29063;BME280;71206;48.564;-123.458;2024-01-15T00:06:17;101889.32;;;1.70;43.76
29063;BME280;71206;48.564;-123.458;2024-01-15T00:08:43;101890.52;;;1.41;44.64
29063;BME280;71206;48.564;-123.458;2024-01-15T00:11:08;101893.45;;;0.68;45.39
29063;BME280;71206;48.564;-123.458;2024-01-15T00:13:34;101890.04;;;1.38;44.65
29063;BME280;71206;48.564;-123.458;2024-01-15T00:15:59;101892.37;;;0.81;45.17
29063;BME280;71206;48.564;-123.458;2024-01-15T00:18:26;101890.44;;;1.42;44.52
29063;BME280;71206;48.564;-123.458;2024-01-15T00:20:51;101897.34;;;0.79;45.35
29063;BME280;71206;48.564;-123.458;2024-01-15T00:23:19;101898.14;;;1.23;44.21
29063;BME280;71206;48.564;-123.458;2024-01-15T00:25:42;101895.48;;;1.75;43.26
29063;BME280;71206;48.564;-123.458;2024-01-15T00:28:07;101900.36;;;2.06;43.14
29063;BME280;71206;48.564;-123.458;2024-01-15T00:30:34;101909.37;;;1.88;43.14
29063;BME280;71206;48.564;-123.458;2024-01-15T00:32:59;101911.54;;;0.83;44.94
29063;BME280;71206;48.564;-123.458;2024-01-15T00:35:25;101911.65;;;1.82;43.22
29063;BME280;71206;48.564;-123.458;2024-01-15T00:37:50;101917.74;;;1.10;43.96
29063;BME280;71206;48.564;-123.458;2024-01-15T00:40:16;101919.00;;;0.64;44.29
29063;BME280;71206;48.564;-123.458;2024-01-15T00:42:44;101920.91;;;1.11;43.75
29063;BME280;71206;48.564;-123.458;2024-01-15T00:45:07;101921.40;;;1.66;43.26
29063;BME280;71206;48.564;-123.458;2024-01-15T00:47:34;101920.30;;;2.18;42.37
29063;BME280;71206;48.564;-123.458;2024-01-15T00:49:58;101927.26;;;1.25;43.29
29063;BME280;71206;48.564;-123.458;2024-01-15T00:52:23;101924.10;;;1.80;42.62
29063;BME280;71206;48.564;-123.458;2024-01-15T00:54:49;101922.09;;;1.63;43.05
29063;BME280;71206;48.564;-123.458;2024-01-15T00:57:15;101923.54;;;2.21;42.68
29063;BME280;71206;48.564;-123.458;2024-01-15T00:59:39;101929.08;;;1.26;43.75
29063;BME280;71206;48.564;-123.458;2024-01-15T01:02:08;101931.15;;;-0.35;45.75
29063;BME280;71206;48.564;-123.458;2024-01-15T01:04:31;101931.61;;;0.94;44.37
29063;BME280;71206;48.564;-123.458;2024-01-15T01:06:55;101926.02;;;2.02;42.92
29063;BME280;71206;48.564;-123.458;2024-01-15T01:09:21;101928.88;;;2.14;42.42
29063;BME280;71206;48.564;-123.458;2024-01-15T01:11:46;101926.33;;;1.92;42.47
29063;BME280;71206;48.564;-123.458;2024-01-15T01:14:11;101933.33;;;1.16;43.30
29063;BME280;71206;48.564;-123.458;2024-01-15T01:16:37;101937.49;;;0.35;45.32
29063;BME280;71206;48.564;-123.458;2024-01-15T01:19:02;101940.05;;;-0.00;45.96
29063;BME280;71206;48.564;-123.458;2024-01-15T01:21:28;101947.64;;;-0.94;47.65
29063;BME280;71206;48.564;-123.458;2024-01-15T01:23:54;101948.36;;;-1.54;49.46
29063;BME280;71206;48.564;-123.458;2024-01-15T01:26:20;101952.82;;;-1.08;49.33
29063;BME280;71206;48.564;-123.458;2024-01-15T01:28:45;101954.21;;;-1.57;49.96
29063;BME280;71206;48.564;-123.458;2024-01-15T01:31:10;101959.46;;;-0.72;49.08
29063;BME280;71206;48.564;-123.458;2024-01-15T01:33:37;101965.03;;;-0.98;49.73
29063;BME280;71206;48.564;-123.458;2024-01-15T01:36:08;101973.51;;;-1.51;50.65
29063;BME280;71206;48.564;-123.458;2024-01-15T01:38:26;101980.22;;;-1.74;51.59
29063;BME280;71206;48.564;-123.458;2024-01-15T01:40:52;101983.54;;;-1.76;51.90
29063;BME280;71206;48.564;-123.458;2024-01-15T01:43:18;101987.54;;;-1.74;51.94
29063;BME280;71206;48.564;-123.458;2024-01-15T01:45:42;101991.55;;;-1.86;52.41
29063;BME280;71206;48.564;-123.458;2024-01-15T01:48:08;101999.12;;;-1.70;52.61
29063;BME280;71206;48.564;-123.458;2024-01-15T01:50:32;102003.20;;;-1.88;52.60
29063;BME280;71206;48.564;-123.458;2024-01-15T01:52:59;102003.64;;;-1.53;51.69
29063;BME280;71206;48.564;-123.458;2024-01-15T01:55:28;102011.60;;;-1.33;51.52
29063;BME280;71206;48.564;-123.458;2024-01-15T01:57:49;102018.42;;;-0.35;50.16
29063;BME280;71206;48.564;-123.458;2024-01-15T02:00:15;102020.16;;;-1.10;50.01
29063;BME280;71206;48.564;-123.458;2024-01-15T02:02:40;102018.73;;;-1.49;51.57
29063;BME280;71206;48.564;-123.458;2024-01-15T02:05:07;102030.15;;;-1.73;51.92
29063;BME280;71206;48.564;-123.458;2024-01-15T02:07:34;102035.76;;;-0.65;50.13
29063;BME280;71206;48.564;-123.458;2024-01-15T02:09:59;102039.00;;;-1.82;51.61
29063;BME280;71206;48.564;-123.458;2024-01-15T02:12:22;102035.96;;;-1.00;49.95
29063;BME280;71206;48.564;-123.458;2024-01-15T02:14:47;102042.67;;;-1.75;51.51
29063;BME280;71206;48.564;-123.458;2024-01-15T02:17:19;102050.11;;;-1.97;52.55
29063;BME280;71206;48.564;-123.458;2024-01-15T02:19:39;102053.84;;;-2.20;53.42
29063;BME280;71206;48.564;-123.458;2024-01-15T02:22:07;102058.40;;;-1.92;53.09
29063;BME280;71206;48.564;-123.458;2024-01-15T02:24:30;102059.18;;;-1.66;52.37
29063;BME280;71206;48.564;-123.458;2024-01-15T02:26:55;102061.55;;;-1.61;51.17
29063;BME280;71206;48.564;-123.458;2024-01-15T02:29:21;102072.45;;;-2.17;52.27
29063;BME280;71206;48.564;-123.458;2024-01-15T02:31:47;102075.88;;;-1.83;52.14
29063;BME280;71206;48.564;-123.458;2024-01-15T02:34:13;102076.07;;;-2.13;52.87
29063;BME280;71206;48.564;-123.458;2024-01-15T02:36:38;102071.07;;;-1.87;52.97
29063;BME280;71206;48.564;-123.458;2024-01-15T02:39:08;102077.13;;;-2.26;52.89
29063;BME280;71206;48.564;-123.458;2024-01-15T02:41:29;102080.71;;;-2.27;53.38
29063;BME280;71206;48.564;-123.458;2024-01-15T02:43:59;102079.76;;;-2.08;52.68
29063;BME280;71206;48.564;-123.458;2024-01-15T02:46:21;102083.12;;;-2.36;52.76
29063;BME280;71206;48.564;-123.458;2024-01-15T02:48:46;102085.66;;;-1.85;52.28
29063;BME280;71206;48.564;-123.458;2024-01-15T02:51:11;102085.52;;;-1.71;52.73
29063;BME280;71206;48.564;-123.458;2024-01-15T02:53:38;102085.66;;;-1.86;52.50
29063;BME280;71206;48.564;-123.458;2024-01-15T02:56:03;102087.42;;;-2.17;52.31
29063;BME280;71206;48.564;-123.458;2024-01-15T02:58:30;102086.19;;;-2.32;54.51
29063;BME280;71206;48.564;-123.458;2024-01-15T03:00:58;102084.42;;;-2.41;53.99
29063;BME280;71206;48.564;-123.458;2024-01-15T03:03:19;102088.43;;;-2.29;53.57
29063;BME280;71206;48.564;-123.458;2024-01-15T03:05:45;102093.75;;;-2.41;54.42
29063;BME280;71206;48.564;-123.458;2024-01-15T03:08:11;102095.55;;;-2.16;53.48
29063;BME280;71206;48.564;-123.458;2024-01-15T03:10:36;102100.60;;;-2.20;53.60
29063;BME280;71206;48.564;-123.458;2024-01-15T03:13:02;102101.51;;;-1.85;53.07
29063;BME280;71206;48.564;-123.458;2024-01-15T03:15:28;102101.35;;;-1.58;50.94
29063;BME280;71206;48.564;-123.458;2024-01-15T03:17:53;102111.16;;;-2.16;51.91
29063;BME280;71206;48.564;-123.458;2024-01-15T03:20:18;102108.55;;;-1.75;50.98
29063;BME280;71206;48.564;-123.458;2024-01-15T03:22:46;102108.02;;;-1.54;50.75
29063;BME280;71206;48.564;-123.458;2024-01-15T03:25:10;102107.54;;;-2.09;50.85
29063;BME280;71206;48.564;-123.458;2024-01-15T03:27:35;102108.63;;;-2.40;51.65
29063;BME280;71206;48.564;-123.458;2024-01-15T03:30:03;102110.27;;;-2.00;51.42
29063;BME280;71206;48.564;-123.458;2024-01-15T03:32:27;102109.95;;;-2.26;52.29
29063;BME280;71206;48.564;-123.458;2024-01-15T03:34:53;102109.96;;;-2.34;52.91
29063;BME280;71206;48.564;-123.458;2024-01-15T03:37:18;102111.20;;;-1.63;51.12
29063;BME280;71206;48.564;-123.458;2024-01-15T03:39:44;102112.51;;;-2.06;51.05
29063;BME280;71206;48.564;-123.458;2024-01-15T03:42:09;102112.79;;;-2.26;51.77
29063;BME280;71206;48.564;-123.458;2024-01-15T03:44:35;102114.07;;;-1.70;50.08
29063;BME280;71206;48.564;-123.458;2024-01-15T03:47:02;102110.26;;;-1.02;49.33
29063;BME280;71206;48.564;-123.458;2024-01-15T03:49:26;102107.84;;;-1.68;49.45
29063;BME280;71206;48.564;-123.458;2024-01-15T03:51:52;102108.53;;;-1.67;49.41
29063;BME280;71206;48.564;-123.458;2024-01-15T03:54:19;102102.67;;;-0.87;47.82
29063;BME280;71206;48.564;-123.458;2024-01-15T03:56:47;102100.11;;;-0.54;46.78
29063;BME280;71206;48.564;-123.458;2024-01-15T03:59:09;102098.15;;;-0.65;46.32
29063;BME280;71206;48.564;-123.458;2024-01-15T04:01:35;102105.76;;;-1.88;48.64
29063;BME280;71206;48.564;-123.458;2024-01-15T04:04:00;102104.62;;;-2.43;49.80
29063;BME280;71206;48.564;-123.458;2024-01-15T04:06:26;102107.09;;;-1.97;50.04
29063;BME280;71206;48.564;-123.458;2024-01-15T04:08:52;102106.81;;;-1.78;49.31
29063;BME280;71206;48.564;-123.458;2024-01-15T04:11:21;102104.96;;;-2.12;50.60
29063;BME280;71206;48.564;-123.458;2024-01-15T04:13:41;102108.92;;;-2.72;51.34
29063;BME280;71206;48.564;-123.458;2024-01-15T04:16:07;102108.76;;;-2.12;50.76
29063;BME280;71206;48.564;-123.458;2024-01-15T04:18:33;102104.36;;;-1.83;49.02
29063;BME280;71206;48.564;-123.458;2024-01-15T04:20:58;102107.68;;;-2.09;49.02
29063;BME280;71206;48.564;-123.458;2024-01-15T04:23:24;102108.96;;;-2.23;49.68
29063;BME280;71206;48.564;-123.458;2024-01-15T04:25:49;102109.83;;;-2.03;49.70
29063;BME280;71206;48.564;-123.458;2024-01-15T04:28:17;102103.07;;;-1.12;47.86
29063;BME280;71206;48.564;-123.458;2024-01-15T04:30:40;102100.98;;;-0.56;46.48
29063;BME280;71206;48.564;-123.458;2024-01-15T04:33:06;102106.15;;;-1.65;48.30
29063;BME280;71206;48.564;-123.458;2024-01-15T04:35:31;102106.53;;;-1.89;48.88
29063;BME280;71206;48.564;-123.458;2024-01-15T04:37:57;102108.94;;;-2.27;50.16
29063;BME280;71206;48.564;-123.458;2024-01-15T04:40:23;102108.01;;;-2.67;51.90
29063;BME280;71206;48.564;-123.458;2024-01-15T04:42:48;102106.47;;;-2.82;51.72
29063;BME280;71206;48.564;-123.458;2024-01-15T04:45:16;102108.97;;;-2.53;51.23
29063;BME280;71206;48.564;-123.458;2024-01-15T04:47:38;102105.25;;;-1.77;49.43
29063;BME280;71206;48.564;-123.458;2024-01-15T04:50:04;102105.95;;;-1.99;50.34
29063;BME280;71206;48.564;-123.458;2024-01-15T04:52:30;102104.57;;;-1.49;48.56
29063;BME280;71206;48.564;-123.458;2024-01-15T04:54:55;102107.90;;;-0.31;46.98
29063;BME280;71206;48.564;-123.458;2024-01-15T04:57:21;102103.52;;;-0.30;46.77
29063;BME280;71206;48.564;-123.458;2024-01-15T04:59:46;102109.07;;;-1.85;48.87
29063;BME280;71206;48.564;-123.458;2024-01-15T05:02:11;102105.27;;;-1.17;48.41
29063;BME280;71206;48.564;-123.458;2024-01-15T05:04:37;102109.42;;;-1.42;49.39
29063;BME280;71206;48.564;-123.458;2024-01-15T05:07:03;102106.75;;;-1.83;50.50
29063;BME280;71206;48.564;-123.458;2024-01-15T05:09:29;102107.93;;;-2.22;50.59
29063;BME280;71206;48.564;-123.458;2024-01-15T05:11:54;102110.36;;;-1.35;49.26
29063;BME280;71206;48.564;-123.458;2024-01-15T05:14:18;102111.70;;;-1.47;49.46
29063;BME280;71206;48.564;-123.458;2024-01-15T05:16:48;102118.03;;;-1.59;50.12
29063;BME280;71206;48.564;-123.458;2024-01-15T05:19:10;102121.05;;;-1.98;52.05
29063;BME280;71206;48.564;-123.458;2024-01-15T05:21:35;102122.08;;;-2.64;54.17
29063;BME280;71206;48.564;-123.458;2024-01-15T05:24:01;102120.89;;;-2.24;53.66
29063;BME280;71206;48.564;-123.458;2024-01-15T05:26:27;102126.58;;;-2.58;54.78
29063;BME280;71206;48.564;-123.458;2024-01-15T05:28:51;102133.44;;;-1.62;53.82
29063;BME280;71206;48.564;-123.458;2024-01-15T05:31:16;102137.56;;;-1.81;53.10
29063;BME280;71206;48.564;-123.458;2024-01-15T05:33:42;102138.27;;;-0.95;51.69
29063;BME280;71206;48.564;-123.458;2024-01-15T05:36:08;102140.59;;;-0.73;50.85
29063;BME280;71206;48.564;-123.458;2024-01-15T05:38:33;102147.76;;;-1.79;52.23
29063;BME280;71206;48.564;-123.458;2024-01-15T05:41:01;102153.84;;;-1.89;52.90
29063;BME280;71206;48.564;-123.458;2024-01-15T05:43:25;102160.43;;;-2.06;52.61
29063;BME280;71206;48.564;-123.458;2024-01-15T05:45:50;102164.04;;;-1.84;53.08
29063;BME280;71206;48.564;-123.458;2024-01-15T05:48:15;102173.77;;;-2.59;53.97
29063;BME280;71206;48.564;-123.458;2024-01-15T05:50:41;102174.06;;;-2.17;54.06
29063;BME280;71206;48.564;-123.458;2024-01-15T05:53:06;102171.67;;;-1.49;52.38
29063;BME280;71206;48.564;-123.458;2024-01-15T05:55:31;102175.04;;;-1.70;52.74
29063;BME280;71206;48.564;-123.458;2024-01-15T05:57:57;102180.41;;;-1.40;51.51
29063;BME280;71206;48.564;-123.458;2024-01-15T06:00:22;102188.43;;;-1.25;51.17
29063;BME280;71206;48.564;-123.458;2024-01-15T06:02:48;102193.20;;;-1.66;51.50
29063;BME280;71206;48.564;-123.458;2024-01-15T06:05:14;102197.34;;;-1.97;53.59
29063;BME280;71206;48.564;-123.458;2024-01-15T06:07:39;102201.64;;;-2.24;54.49
29063;BME280;71206;48.564;-123.458;2024-01-15T06:10:05;102205.10;;;-1.80;53.82
29063;BME280;71206;48.564;-123.458;2024-01-15T06:12:34;102207.73;;;-1.43;52.39
29063;BME280;71206;48.564;-123.458;2024-01-15T06:14:56;102213.95;;;-1.79;53.53
29063;BME280;71206;48.564;-123.458;2024-01-15T06:17:21;102221.16;;;-1.05;51.95
29063;BME280;71206;48.564;-123.458;2024-01-15T06:19:50;102227.29;;;-1.01;51.42
29063;BME280;71206;48.564;-123.458;2024-01-15T06:22:13;102231.52;;;-1.80;52.19
29063;BME280;71206;48.564;-123.458;2024-01-15T06:24:37;102235.94;;;-2.15;54.85
29063;BME280;71206;48.564;-123.458;2024-01-15T06:27:03;102241.05;;;-2.23;55.87
29063;BME280;71206;48.564;-123.458;2024-01-15T06:29:29;102246.08;;;-2.50;56.98
29063;BME280;71206;48.564;-123.458;2024-01-15T06:31:54;102253.27;;;-2.35;58.66
29063;BME280;71206;48.564;-123.458;2024-01-15T06:34:20;102259.83;;;-2.78;60.85
29063;BME280;71206;48.564;-123.458;2024-01-15T06:36:45;102254.21;;;-1.54;57.62
29063;BME280;71206;48.564;-123.458;2024-01-15T06:39:10;102258.22;;;-1.82;55.83
29063;BME280;71206;48.564;-123.458;2024-01-15T06:41:36;102256.62;;;-1.17;55.36
29063;BME280;71206;48.564;-123.458;2024-01-15T06:44:01;102261.88;;;-1.63;56.00
29063;BME280;71206;48.564;-123.458;2024-01-15T06:46:27;102266.27;;;-2.06;57.24
29063;BME280;71206;48.564;-123.458;2024-01-15T06:48:52;102262.88;;;-1.79;58.14
29063;BME280;71206;48.564;-123.458;2024-01-15T06:51:18;102263.12;;;-1.76;56.79
29063;BME280;71206;48.564;-123.458;2024-01-15T06:53:54;102260.78;;;-1.68;56.28
29063;BME280;71206;48.564;-123.458;2024-01-15T06:56:10;102259.73;;;-2.27;57.19
29063;BME280;71206;48.564;-123.458;2024-01-15T06:58:34;102262.67;;;-2.11;58.96
29063;BME280;71206;48.564;-123.458;2024-01-15T07:01:02;102256.77;;;-2.31;59.05
29063;BME280;71206;48.564;-123.458;2024-01-15T07:03:30;102254.83;;;-1.71;58.59
29063;BME280;71206;48.564;-123.458;2024-01-15T07:05:51;102248.18;;;-1.60;56.26
29063;BME280;71206;48.564;-123.458;2024-01-15T07:08:17;102242.77;;;-1.56;56.29
29063;BME280;71206;48.564;-123.458;2024-01-15T07:10:42;102240.80;;;-1.98;57.20
29063;BME280;71206;48.564;-123.458;2024-01-15T07:13:08;102240.48;;;-1.28;55.58
29063;BME280;71206;48.564;-123.458;2024-01-15T07:15:33;102236.19;;;-1.89;56.41
29063;BME280;71206;48.564;-123.458;2024-01-15T07:18:02;102232.13;;;-2.05;58.26
29063;BME280;71206;48.564;-123.458;2024-01-15T07:20:25;102230.42;;;-2.33;59.79
29063;BME280;71206;48.564;-123.458;2024-01-15T07:22:49;102226.51;;;-2.25;58.85
29063;BME280;71206;48.564;-123.458;2024-01-15T07:25:16;102228.92;;;-1.70;58.29
29063;BME280;71206;48.564;-123.458;2024-01-15T07:27:41;102230.56;;;-1.97;58.05
29063;BME280;71206;48.564;-123.458;2024-01-15T07:30:07;102230.38;;;-2.17;60.47
29063;BME280;71206;48.564;-123.458;2024-01-15T07:32:32;102225.46;;;-1.82;58.96
29063;BME280;71206;48.564;-123.458;2024-01-15T07:34:57;102230.41;;;-2.23;59.52
29063;BME280;71206;48.564;-123.458;2024-01-15T07:37:26;102233.04;;;-2.16;58.39
29063;BME280;71206;48.564;-123.458;2024-01-15T07:39:49;102239.24;;;-2.64;60.72
29063;BME280;71206;48.564;-123.458;2024-01-15T07:42:15;102245.69;;;-2.60;61.40
29063;BME280;71206;48.564;-123.458;2024-01-15T07:44:39;102243.19;;;-2.37;59.97
29063;BME280;71206;48.564;-123.458;2024-01-15T07:47:05;102252.93;;;-2.52;60.49
29063;BME280;71206;48.564;-123.458;2024-01-15T07:49:32;102260.39;;;-2.50;59.79
29063;BME280;71206;48.564;-123.458;2024-01-15T07:51:55;102270.01;;;-2.92;61.40
29063;BME280;71206;48.564;-123.458;2024-01-15T07:54:20;102276.07;;;-1.99;59.12
29063;BME280;71206;48.564;-123.458;2024-01-15T07:56:54;102282.13;;;-2.12;58.68
29063;BME280;71206;48.564;-123.458;2024-01-15T07:59:11;102292.88;;;-2.88;60.62
29063;BME280;71206;48.564;-123.458;2024-01-15T08:01:41;102300.43;;;-3.39;64.63
29063;BME280;71206;48.564;-123.458;2024-01-15T08:04:01;102302.45;;;-2.69;62.38
29063;BME280;71206;48.564;-123.458;2024-01-15T08:06:27;102309.64;;;-2.75;61.75
29063;BME280;71206;48.564;-123.458;2024-01-15T08:08:53;102318.14;;;-2.29;60.73
29063;BME280;71206;48.564;-123.458;2024-01-15T08:11:23;102325.48;;;-2.45;60.37
29063;BME280;71206;48.564;-123.458;2024-01-15T08:13:44;102331.65;;;-2.42;61.59
29063;BME280;71206;48.564;-123.458;2024-01-15T08:16:14;102320.61;;;-3.02;63.89
29063;BME280;71206;48.564;-123.458;2024-01-15T08:18:34;102315.45;;;-2.53;61.38
29063;BME280;71206;48.564;-123.458;2024-01-15T08:21:00;102308.83;;;-1.78;59.36
29063;BME280;71206;48.564;-123.458;2024-01-15T08:23:25;102309.43;;;-1.73;60.46
29063;BME280;71206;48.564;-123.458;2024-01-15T08:25:50;102308.25;;;-2.21;60.01
29063;BME280;71206;48.564;-123.458;2024-01-15T08:28:16;102309.89;;;-2.33;61.29
29063;BME280;71206;48.564;-123.458;2024-01-15T08:30:46;102309.43;;;-2.04;60.04
29063;BME280;71206;48.564;-123.458;2024-01-15T08:33:08;102303.60;;;-1.86;60.11
29063;BME280;71206;48.564;-123.458;2024-01-15T08:35:35;102303.79;;;-1.77;60.15
29063;BME280;71206;48.564;-123.458;2024-01-15T08:37:58;102317.00;;;-1.80;58.42
29063;BME280;71206;48.564;-123.458;2024-01-15T08:40:24;102315.77;;;-1.73;58.04
29063;BME280;71206;48.564;-123.458;2024-01-15T08:42:49;102314.38;;;-2.30;58.74
29063;BME280;71206;48.564;-123.458;2024-01-15T08:45:18;102315.32;;;-2.48;61.48
29063;BME280;71206;48.564;-123.458;2024-01-15T08:47:43;102312.00;;;-2.97;62.61
29063;BME280;71206;48.564;-123.458;2024-01-15T08:50:07;102310.77;;;-2.28;61.60
29063;BME280;71206;48.564;-123.458;2024-01-15T08:52:31;102301.73;;;-1.94;59.56
29063;BME280;71206;48.564;-123.458;2024-01-15T08:54:57;102300.62;;;-1.84;59.66
29063;BME280;71206;48.564;-123.458;2024-01-15T08:57:22;102286.72;;;-1.81;57.65
29063;BME280;71206;48.564;-123.458;2024-01-15T08:59:47;102280.77;;;-1.72;57.58
29063;BME280;71206;48.564;-123.458;2024-01-15T09:02:13;102275.32;;;-1.51;56.51
29063;BME280;71206;48.564;-123.458;2024-01-15T09:04:38;102271.92;;;-1.93;57.22
29063;BME280;71206;48.564;-123.458;2024-01-15T09:07:03;102277.04;;;-3.37;64.06
29063;BME280;71206;48.564;-123.458;2024-01-15T09:09:31;102278.20;;;-2.95;64.53
29063;BME280;71206;48.564;-123.458;2024-01-15T09:11:55;102269.73;;;-2.20;60.24
29063;BME280;71206;48.564;-123.458;2024-01-15T09:14:21;102273.84;;;-1.69;57.87
29063;BME280;71206;48.564;-123.458;2024-01-15T09:16:47;102276.55;;;-1.27;56.18
29063;BME280;71206;48.564;-123.458;2024-01-15T09:19:12;102282.73;;;-1.34;55.96
29063;BME280;71206;48.564;-123.458;2024-01-15T09:21:39;102292.10;;;-1.62;56.02
29063;BME280;71206;48.564;-123.458;2024-01-15T09:24:10;102297.97;;;-1.67;57.02
29063;BME280;71206;48.564;-123.458;2024-01-15T09:26:29;102299.15;;;-1.60;56.60
29063;BME280;71206;48.564;-123.458;2024-01-15T09:28:54;102306.74;;;-2.17;57.92
29063;BME280;71206;48.564;-123.458;2024-01-15T09:31:19;102305.89;;;-1.72;58.26
29063;BME280;71206;48.564;-123.458;2024-01-15T09:33:45;102305.48;;;-1.22;57.56
29063;BME280;71206;48.564;-123.458;2024-01-15T09:36:10;102305.28;;;-1.28;56.42
29063;BME280;71206;48.564;-123.458;2024-01-15T09:38:42;102300.35;;;-1.84;57.35
29063;BME280;71206;48.564;-123.458;2024-01-15T09:41:02;102308.31;;;-1.70;56.77
29063;BME280;71206;48.564;-123.458;2024-01-15T09:43:27;102319.00;;;-0.97;54.83
29063;BME280;71206;48.564;-123.458;2024-01-15T09:45:54;102326.90;;;-0.97;54.11
29063;BME280;71206;48.564;-123.458;2024-01-15T09:48:18;102330.45;;;-1.64;55.89
29063;BME280;71206;48.564;-123.458;2024-01-15T09:50:44;102330.17;;;-1.52;55.68
29063;BME280;71206;48.564;-123.458;2024-01-15T09:53:10;102342.41;;;-2.16;57.92
29063;BME280;71206;48.564;-123.458;2024-01-15T09:55:36;102337.72;;;-1.47;56.90
29063;BME280;71206;48.564;-123.458;2024-01-15T09:58:04;102336.23;;;-1.57;56.28
29063;BME280;71206;48.564;-123.458;2024-01-15T10:00:27;102345.13;;;-2.95;60.70
29063;BME280;71206;48.564;-123.458;2024-01-15T10:02:52;102345.38;;;-2.65;59.80
29063;BME280;71206;48.564;-123.458;2024-01-15T10:05:18;102348.87;;;-2.04;59.52
29063;BME280;71206;48.564;-123.458;2024-01-15T10:07:43;102351.37;;;-1.75;59.08
29063;BME280;71206;48.564;-123.458;2024-01-15T10:10:11;102359.86;;;-2.42;60.26
29063;BME280;71206;48.564;-123.458;2024-01-15T10:12:34;102349.94;;;-1.41;56.88
29063;BME280;71206;48.564;-123.458;2024-01-15T10:14:59;102365.12;;;-2.61;60.94
29063;BME280;71206;48.564;-123.458;2024-01-15T10:17:26;102364.27;;;-1.69;59.13
29063;BME280;71206;48.564;-123.458;2024-01-15T10:19:50;102372.09;;;-1.77;58.67
29063;BME280;71206;48.564;-123.458;2024-01-15T10:22:15;102373.70;;;-1.97;58.45
29063;BME280;71206;48.564;-123.458;2024-01-15T10:24:41;102384.00;;;-2.14;58.37
29063;BME280;71206;48.564;-123.458;2024-01-15T10:27:10;102394.53;;;-3.33;65.61
29063;BME280;71206;48.564;-123.458;2024-01-15T10:29:35;102400.73;;;-2.22;61.39
29063;BME280;71206;48.564;-123.458;2024-01-15T10:31:56;102403.23;;;-2.12;59.82
29063;BME280;71206;48.564;-123.458;2024-01-15T10:34:22;102405.79;;;-2.37;59.96
29063;BME280;71206;48.564;-123.458;2024-01-15T10:36:49;102408.71;;;-1.94;59.88
29063;BME280;71206;48.564;-123.458;2024-01-15T10:39:16;102411.55;;;-3.30;62.62
29063;BME280;71206;48.564;-123.458;2024-01-15T10:41:39;102413.72;;;-2.37;61.28
29063;BME280;71206;48.564;-123.458;2024-01-15T10:44:04;102409.83;;;-2.14;60.28
29063;BME280;71206;48.564;-123.458;2024-01-15T10:46:31;102405.75;;;-1.81;58.74
29063;BME280;71206;48.564;-123.458;2024-01-15T10:48:55;102405.19;;;-1.85;58.54
29063;BME280;71206;48.564;-123.458;2024-01-15T10:51:22;102408.06;;;-1.67;57.51
29063;BME280;71206;48.564;-123.458;2024-01-15T10:53:46;102411.30;;;-1.67;57.43
29063;BME280;71206;48.564;-123.458;2024-01-15T10:56:12;102410.80;;;-2.26;59.12
29063;BME280;71206;48.564;-123.458;2024-01-15T10:58:38;102415.69;;;-2.97;61.41
29063;BME280;71206;48.564;-123.458;2024-01-15T11:01:04;102417.46;;;-2.33;60.34
29063;BME280;71206;48.564;-123.458;2024-01-15T11:03:32;102415.40;;;-2.51;61.74
29063;BME280;71206;48.564;-123.458;2024-01-15T11:05:55;102419.64;;;-2.54;61.04
29063;BME280;71206;48.564;-123.458;2024-01-15T11:08:19;102414.78;;;-1.95;60.27
29063;BME280;71206;48.564;-123.458;2024-01-15T11:10:51;102405.34;;;-1.86;58.87
29063;BME280;71206;48.564;-123.458;2024-01-15T11:13:11;102403.81;;;-1.85;58.76
29063;BME280;71206;48.564;-123.458;2024-01-15T11:15:56;102406.37;;;-3.38;64.56
29063;BME280;71206;48.564;-123.458;2024-01-15T11:18:02;102405.94;;;-3.34;65.77
29063;BME280;71206;48.564;-123.458;2024-01-15T11:20:25;102407.81;;;-3.60;69.87
29063;BME280;71206;48.564;-123.458;2024-01-15T11:22:51;102406.83;;;-2.00;61.84
29063;BME280;71206;48.564;-123.458;2024-01-15T11:25:19;102405.85;;;-3.06;63.25
29063;BME280;71206;48.564;-123.458;2024-01-15T11:27:43;102404.62;;;-2.72;62.37
29063;BME280;71206;48.564;-123.458;2024-01-15T11:30:11;102402.13;;;-2.05;59.59
29063;BME280;71206;48.564;-123.458;2024-01-15T11:32:34;102403.84;;;-2.53;61.03
29063;BME280;71206;48.564;-123.458;2024-01-15T11:34:59;102398.03;;;-1.88;60.00
29063;BME280;71206;48.564;-123.458;2024-01-15T11:37:23;102388.86;;;-1.42;58.90
29063;BME280;71206;48.564;-123.458;2024-01-15T11:39:52;102390.36;;;-1.87;60.09
29063;BME280;71206;48.564;-123.458;2024-01-15T11:42:15;102390.33;;;-2.20;60.68
29063;BME280;71206;48.564;-123.458;2024-01-15T11:44:50;102386.82;;;-2.51;59.19
29063;BME280;71206;48.564;-123.458;2024-01-15T11:47:07;102379.11;;;-2.35;61.99
29063;BME280;71206;48.564;-123.458;2024-01-15T11:51:56;102376.92;;;-2.32;61.38
29063;BME280;71206;48.564;-123.458;2024-01-15T11:54:23;102375.78;;;-2.58;61.80
29063;BME280;71206;48.564;-123.458;2024-01-15T11:56:48;102375.03;;;-2.07;60.39
29063;BME280;71206;48.564;-123.458;2024-01-15T11:59:13;102367.57;;;-1.56;59.20
29063;BME280;71206;48.564;-123.458;2024-01-15T12:01:38;102367.08;;;-2.36;61.58
29063;BME280;71206;48.564;-123.458;2024-01-15T12:04:08;102360.44;;;-1.74;58.56
29063;BME280;71206;48.564;-123.458;2024-01-15T12:06:30;102356.49;;;-2.62;62.18
29063;BME280;71206;48.564;-123.458;2024-01-15T12:11:24;102351.67;;;-3.24;66.74
29063;BME280;71206;48.564;-123.458;2024-01-15T12:13:47;102352.30;;;-2.57;63.55
29063;BME280;71206;48.564;-123.458;2024-01-15T12:16:13;102356.15;;;-2.96;64.35